Time;durP1;ratioP1;P1;durP2;ratioP2;P2;SDS_P1;SDS_P2;PMS_P1;PMS_P2;Temp;Humidity;BMP_temperature;BMP_pressure;BME280_temperature;BME280_humidity;BME280_pressure;Samples;Min_cycle;Max_cycle;Signal;HPM_P1;HPM_P2
2021/06/09 00:00:39;;;;;;;8.23;6.35;;;18.10;79.70;;;;;;5017088;28;20421;-40
2021/06/09 00:03:05;;;;;;;11.45;7.05;;;18.10;79.60;;;;;;5017037;28;20113;-40
2021/06/09 00:05:31;;;;;;;7.43;5.80;;;18.10;79.70;;;;;;5032389;28;20329;-40
2021/06/09 00:07:56;;;;;;;9.60;5.70;;;18.10;79.60;;;;;;5016706;28;20144;-40
2021/06/09 00:10:22;;;;;;;7.07;5.95;;;18.10;79.60;;;;;;5016840;28;20022;-39
2021/06/09 00:12:48;;;;;;;8.05;6.88;;;18.10;79.70;;;;;;5016760;28;20033;-40
2021/06/09 00:15:15;;;;;;;9.35;6.80;;;18.10;79.90;;;;;;5016791;28;20109;-40
2021/06/09 00:17:41;;;;;;;7.35;6.15;;;18.10;79.80;;;;;;5016506;28;20050;-40
2021/06/09 00:20:16;;;;;;;8.18;6.05;;;18.10;79.80;;;;;;5016595;28;20049;-40
2021/06/09 00:22:41;;;;;;;7.50;6.15;;;18.10;79.80;;;;;;5016364;28;20026;-40
2021/06/09 00:25:15;;;;;;;8.50;6.88;;;18.10;79.90;;;;;;5017062;28;20077;-39
2021/06/09 00:27:47;;;;;;;8.93;6.30;;;18.10;80.10;;;;;;5016571;28;20034;-40
2021/06/09 00:30:17;;;;;;;9.60;6.20;;;18.10;80.00;;;;;;5016671;28;20029;-40
2021/06/09 00:32:44;;;;;;;8.30;6.20;;;18.10;80.10;;;;;;5016092;28;20117;-40
2021/06/09 00:35:10;;;;;;;6.70;6.00;;;18.10;80.10;;;;;;5016505;28;20026;-40
2021/06/09 00:37:36;;;;;;;7.20;5.80;;;18.10;80.10;;;;;;5016383;28;20058;-40
2021/06/09 00:40:04;;;;;;;10.02;5.97;;;18.10;80.00;;;;;;5016518;28;20072;-39
2021/06/09 00:42:29;;;;;;;7.07;6.05;;;18.10;80.10;;;;;;5016383;28;20037;-40
2021/06/09 00:44:55;;;;;;;9.25;6.75;;;18.00;79.90;;;;;;5016463;28;20345;-40
2021/06/09 00:47:23;;;;;;;7.75;6.65;;;18.00;80.00;;;;;;5016355;28;20038;-40
2021/06/09 00:49:49;;;;;;;7.00;6.20;;;18.00;79.90;;;;;;5016528;28;20029;-40
2021/06/09 00:52:15;;;;;;;10.48;6.32;;;18.00;79.90;;;;;;5016260;28;20038;-40
2021/06/09 00:54:41;;;;;;;7.55;6.00;;;17.90;79.90;;;;;;5016515;28;20032;-40
2021/06/09 00:57:08;;;;;;;14.55;8.20;;;17.90;79.90;;;;;;5016077;28;20295;-40
2021/06/09 00:59:35;;;;;;;8.55;6.70;;;18.00;80.10;;;;;;5016557;28;20030;-40
2021/06/09 01:02:01;;;;;;;9.52;6.72;;;18.00;80.10;;;;;;5016121;28;20061;-40
2021/06/09 01:04:26;;;;;;;8.25;6.72;;;17.90;80.00;;;;;;5015944;28;20343;-40
2021/06/09 01:06:52;;;;;;;8.43;6.93;;;17.90;80.00;;;;;;5016013;28;20042;-40
2021/06/09 01:09:18;;;;;;;7.28;6.03;;;17.90;80.00;;;;;;5015984;28;20064;-40
2021/06/09 01:11:44;;;;;;;7.18;6.13;;;17.90;80.00;;;;;;5015903;28;20049;-40
2021/06/09 01:14:09;;;;;;;6.75;6.03;;;17.90;80.10;;;;;;5015966;28;20025;-40
2021/06/09 01:16:35;;;;;;;9.15;5.80;;;17.90;80.20;;;;;;5015542;28;20081;-40
2021/06/09 01:19:01;;;;;;;7.75;6.35;;;17.90;80.20;;;;;;5015853;28;20026;-40
2021/06/09 01:21:31;;;;;;;7.32;6.63;;;17.80;80.10;;;;;;5015849;28;20116;-41
2021/06/09 01:23:57;;;;;;;9.10;6.75;;;17.90;80.10;;;;;;5016161;28;20053;-40
2021/06/09 01:26:25;;;;;;;8.00;6.95;;;17.80;79.90;;;;;;5015558;28;20052;-39
2021/06/09 01:28:56;;;;;;;8.80;6.75;;;17.80;80.00;;;;;;5031209;28;20022;-40
2021/06/09 01:31:24;;;;;;;7.63;5.75;;;17.80;80.00;;;;;;5015653;28;20038;-40
2021/06/09 01:33:50;;;;;;;9.10;6.63;;;17.80;80.10;;;;;;5015763;28;20022;-40
2021/06/09 01:36:15;;;;;;;7.90;5.72;;;17.80;80.10;;;;;;5015376;28;20037;-40
2021/06/09 01:38:41;;;;;;;6.32;5.53;;;17.80;80.30;;;;;;5015687;28;20030;-40
2021/06/09 01:41:07;;;;;;;6.97;5.78;;;17.80;80.10;;;;;;5015909;28;20044;-40
2021/06/09 01:43:33;;;;;;;6.30;5.63;;;17.80;80.20;;;;;;5015991;28;20066;-40
2021/06/09 01:46:00;;;;;;;7.57;6.30;;;17.80;80.20;;;;;;5019876;28;20042;-40
2021/06/09 01:48:25;;;;;;;7.78;5.97;;;17.80;80.30;;;;;;5019534;28;20030;-40
2021/06/09 01:50:51;;;;;;;12.60;6.82;;;17.70;80.20;;;;;;5019669;28;20298;-40
2021/06/09 01:53:17;;;;;;;10.05;6.18;;;17.70;80.20;;;;;;5019030;28;20061;-40
2021/06/09 01:55:43;;;;;;;7.03;6.30;;;17.70;80.30;;;;;;5019750;28;20038;-39
2021/06/09 01:58:11;;;;;;;8.63;6.35;;;17.70;80.40;;;;;;5019086;28;20060;-40
2021/06/09 02:00:43;;;;;;;8.18;6.18;;;17.70;80.50;;;;;;5019521;28;20041;-40
2021/06/09 02:03:09;;;;;;;8.82;6.38;;;17.70;80.40;;;;;;5019091;28;20037;-40
2021/06/09 02:05:36;;;;;;;6.63;5.45;;;17.70;80.50;;;;;;5019280;28;20041;-40
2021/06/09 02:08:08;;;;;;;5.85;4.95;;;17.60;80.60;;;;;;5018910;28;20113;-40
2021/06/09 02:10:35;;;;;;;8.70;5.65;;;17.60;80.60;;;;;;5019793;28;20024;-40
2021/06/09 02:13:09;;;;;;;8.55;6.28;;;17.70;80.80;;;;;;5018902;28;20033;-40
2021/06/09 02:15:36;;;;;;;6.68;5.72;;;17.70;80.70;;;;;;5019228;28;20045;-40
2021/06/09 02:18:10;;;;;;;7.90;5.75;;;17.60;80.70;;;;;;5018597;28;20433;-40
2021/06/09 02:20:46;;;;;;;8.38;6.20;;;17.70;80.80;;;;;;5019226;28;20060;-40
2021/06/09 02:23:13;;;;;;;8.25;6.60;;;17.70;80.70;;;;;;5018874;28;20033;-40
2021/06/09 02:25:42;;;;;;;6.95;6.10;;;17.60;80.70;;;;;;5019031;28;20437;-39
2021/06/09 02:28:08;;;;;;;6.85;5.57;;;17.60;80.80;;;;;;5018736;28;20026;-40
2021/06/09 02:30:34;;;;;;;7.40;5.85;;;17.60;80.70;;;;;;5018826;28;20080;-40
2021/06/09 02:33:00;;;;;;;8.32;5.75;;;17.70;80.70;;;;;;5018642;28;20028;-40
2021/06/09 02:35:26;;;;;;;7.03;5.88;;;17.70;80.70;;;;;;5018548;28;20026;-40
2021/06/09 02:37:53;;;;;;;5.78;4.93;;;17.70;80.70;;;;;;5018452;28;20034;-40
2021/06/09 02:40:21;;;;;;;6.93;5.95;;;17.70;80.70;;;;;;5018587;28;20025;-40
2021/06/09 02:42:48;;;;;;;10.00;6.38;;;17.70;80.70;;;;;;5018413;28;20052;-40
2021/06/09 02:45:19;;;;;;;8.45;6.25;;;17.70;80.70;;;;;;5018903;28;20057;-40
2021/06/09 02:47:49;;;;;;;8.70;5.68;;;17.70;80.60;;;;;;5018219;28;20342;-40
2021/06/09 02:50:17;;;;;;;6.22;5.25;;;17.70;80.60;;;;;;5018226;28;20022;-40
2021/06/09 02:52:46;;;;;;;7.40;6.03;;;17.70;80.50;;;;;;5018291;28;20092;-40
2021/06/09 02:55:41;;;;;;;7.65;5.97;;;17.70;80.50;;;;;;5018212;28;20018;-39
2021/06/09 02:58:45;;;;;;;8.43;5.45;;;17.70;80.40;;;;;;5010708;28;20046;-40
2021/06/09 03:01:31;;;;;;;5.65;5.00;;;17.70;80.30;;;;;;5017918;28;20038;-40
2021/06/09 03:04:08;;;;;;;9.85;6.45;;;17.70;80.40;;;;;;5018113;28;20062;-40
2021/06/09 03:06:58;;;;;;;8.13;5.68;;;17.70;80.40;;;;;;5017951;28;20053;-40
2021/06/09 03:10:13;;;;;;;9.40;6.40;;;17.70;80.50;;;;;;5018262;28;20533;-40
2021/06/09 03:12:51;;;;;;;8.25;5.32;;;17.70;80.20;;;;;;5008007;28;20049;-40
2021/06/09 03:15:32;;;;;;;6.97;5.68;;;17.80;80.50;;;;;;5017883;28;20026;-40
2021/06/09 03:18:23;;;;;;;8.48;5.93;;;17.80;80.50;;;;;;5017485;28;20121;-40
2021/06/09 03:21:06;;;;;;;7.68;5.45;;;17.80;80.50;;;;;;5017638;28;20038;-40
2021/06/09 03:23:50;;;;;;;6.47;5.78;;;17.80;80.30;;;;;;5017972;28;20030;-40
2021/06/09 03:26:41;;;;;;;8.00;6.13;;;17.90;80.40;;;;;;5017637;28;20038;-40
2021/06/09 03:29:15;;;;;;;6.93;5.47;;;17.90;80.40;;;;;;5018102;28;20037;-40
2021/06/09 03:31:53;;;;;;;6.53;5.30;;;17.90;80.50;;;;;;5017770;28;20485;-40
2021/06/09 03:34:23;;;;;;;8.52;5.47;;;18.00;81.00;;;;;;5017857;28;20054;-40
2021/06/09 03:36:52;;;;;;;6.63;5.00;;;18.00;80.40;;;;;;5017571;28;20048;-40
2021/06/09 03:39:21;;;;;;;8.95;5.60;;;18.00;80.30;;;;;;5017737;28;20092;-39
2021/06/09 03:41:52;;;;;;;5.85;5.15;;;18.10;80.30;;;;;;5017238;28;20444;-40
2021/06/09 03:44:28;;;;;;;6.82;5.35;;;18.10;80.00;;;;;;5017777;28;20117;-40
2021/06/09 03:46:56;;;;;;;9.35;5.38;;;18.10;80.00;;;;;;5017256;28;20064;-40
2021/06/09 03:49:24;;;;;;;5.10;4.60;;;18.10;79.90;;;;;;5017602;28;20419;-40
2021/06/09 03:51:51;;;;;;;6.63;5.32;;;18.20;79.80;;;;;;5017424;28;20065;-40
2021/06/09 03:54:18;;;;;;;8.57;5.40;;;18.20;79.70;;;;;;5017060;28;20087;-40
2021/06/09 03:56:47;;;;;;;6.32;5.30;;;18.30;79.60;;;;;;5017052;28;20029;-40
2021/06/09 03:59:14;;;;;;;7.15;5.32;;;18.40;79.70;;;;;;5017182;28;20160;-40
2021/06/09 04:01:41;;;;;;;6.80;4.80;;;18.40;79.70;;;;;;5017101;28;20038;-40
2021/06/09 04:04:09;;;;;;;5.35;4.28;;;18.40;79.60;;;;;;5017230;28;20041;-40
2021/06/09 04:06:39;;;;;;;4.72;4.18;;;18.40;79.20;;;;;;5015952;28;20048;-40
2021/06/09 04:09:06;;;;;;;7.75;5.13;;;18.50;79.20;;;;;;5017206;28;20029;-39
2021/06/09 04:11:34;;;;;;;6.32;4.60;;;18.50;78.70;;;;;;5017015;28;20037;-40
2021/06/09 04:14:00;;;;;;;5.88;4.70;;;18.60;78.70;;;;;;5017245;28;20026;-40
2021/06/09 04:16:29;;;;;;;5.72;4.70;;;18.60;78.40;;;;;;5016091;28;20127;-40
2021/06/09 04:18:56;;;;;;;4.75;4.25;;;18.60;78.00;;;;;;5017077;28;20357;-40
2021/06/09 04:21:25;;;;;;;6.10;4.43;;;18.70;78.10;;;;;;5016842;28;20042;-40
2021/06/09 04:23:51;;;;;;;5.07;4.13;;;18.70;78.00;;;;;;5017006;28;20026;-40
2021/06/09 04:26:18;;;;;;;5.70;4.38;;;18.80;78.00;;;;;;5016614;28;20034;-40
2021/06/09 04:28:45;;;;;;;6.65;4.38;;;18.80;77.90;;;;;;5016817;28;20240;-40
2021/06/09 04:31:15;;;;;;;6.60;4.47;;;18.80;77.80;;;;;;5016372;28;20041;-40
2021/06/09 04:33:45;;;;;;;5.75;3.97;;;18.90;77.50;;;;;;5016808;28;20033;-39
2021/06/09 04:36:15;;;;;;;5.40;4.40;;;18.90;77.20;;;;;;5016378;28;20464;-40
2021/06/09 04:38:41;;;;;;;4.40;3.80;;;18.90;77.20;;;;;;5016218;28;20052;-40
2021/06/09 04:41:08;;;;;;;9.95;4.72;;;19.00;77.10;;;;;;5016527;28;20042;-40
2021/06/09 04:43:34;;;;;;;5.18;4.18;;;19.10;77.40;;;;;;5016086;28;20046;-40
2021/06/09 04:46:00;;;;;;;8.70;4.70;;;19.10;76.90;;;;;;5016621;28;20382;-40
2021/06/09 04:48:26;;;;;;;4.50;4.05;;;19.10;76.60;;;;;;5015959;28;20018;-40
2021/06/09 04:50:52;;;;;;;7.50;4.00;;;19.20;76.40;;;;;;5016172;28;20034;-40
2021/06/09 04:53:20;;;;;;;4.93;4.07;;;19.20;76.30;;;;;;5016000;28;20021;-40
2021/06/09 04:55:51;;;;;;;5.38;4.05;;;19.30;76.30;;;;;;5016448;28;20195;-40
2021/06/09 04:58:20;;;;;;;4.30;3.70;;;19.40;76.00;;;;;;5015597;28;20122;-40
2021/06/09 05:00:47;;;;;;;5.05;4.03;;;19.50;76.20;;;;;;5016275;28;20318;-40
2021/06/09 05:03:13;;;;;;;4.45;3.50;;;19.50;75.40;;;;;;5015830;28;20033;-40
2021/06/09 05:05:40;;;;;;;5.80;3.85;;;19.60;75.40;;;;;;5015760;28;20073;-40
2021/06/09 05:08:06;;;;;;;5.05;4.00;;;19.70;75.10;;;;;;5015589;28;20059;-40
2021/06/09 05:10:38;;;;;;;5.20;4.32;;;19.70;74.40;;;;;;5015960;28;20415;-40
2021/06/09 05:13:16;;;;;;;8.02;4.65;;;19.80;74.80;;;;;;5015406;28;20211;-40
2021/06/09 05:15:49;;;;;;;5.03;4.18;;;19.80;74.30;;;;;;5015736;28;20402;-40
2021/06/09 05:18:25;;;;;;;5.38;3.88;;;19.90;74.10;;;;;;5030398;28;20345;-40
2021/06/09 05:20:52;;;;;;;4.20;3.80;;;19.90;73.90;;;;;;5015699;28;20109;-39
2021/06/09 05:23:28;;;;;;;6.18;4.13;;;20.00;73.80;;;;;;5015325;28;20406;-40
2021/06/09 05:25:56;;;;;;;4.80;3.85;;;20.00;73.30;;;;;;5015522;28;20418;-40
2021/06/09 05:28:25;;;;;;;10.35;4.35;;;20.00;73.20;;;;;;5014999;28;20041;-39
2021/06/09 05:30:55;;;;;;;12.03;4.70;;;20.00;72.70;;;;;;5015727;28;20030;-39
2021/06/09 05:33:21;;;;;;;6.45;3.65;;;20.10;72.50;;;;;;5015356;28;20030;-40
2021/06/09 05:35:51;;;;;;;4.80;4.03;;;20.10;72.90;;;;;;5015577;28;20045;-39
2021/06/09 05:38:20;;;;;;;6.35;4.65;;;20.10;73.00;;;;;;5015177;28;20037;-39
2021/06/09 05:40:47;;;;;;;4.60;3.63;;;20.20;72.60;;;;;;5015603;28;20045;-39
2021/06/09 05:43:18;;;;;;;5.88;4.05;;;20.20;72.60;;;;;;5015574;28;20037;-39
2021/06/09 05:45:47;;;;;;;7.85;3.97;;;20.20;72.50;;;;;;5015544;28;20041;-39
2021/06/09 05:48:12;;;;;;;4.28;3.60;;;20.30;72.40;;;;;;5015129;28;20026;-40
2021/06/09 05:50:38;;;;;;;7.65;4.43;;;20.30;72.10;;;;;;5015514;28;20042;-39
2021/06/09 05:53:04;;;;;;;7.38;4.18;;;20.40;72.10;;;;;;5009956;28;20029;-39
2021/06/09 05:55:32;;;;;;;10.35;4.40;;;20.40;72.10;;;;;;5015238;28;20025;-39
2021/06/09 05:58:03;;;;;;;6.00;4.28;;;20.50;71.80;;;;;;5014532;28;20030;-39
2021/06/09 06:00:30;;;;;;;5.97;4.20;;;20.50;71.50;;;;;;5015327;28;20022;-40
2021/06/09 06:02:56;;;;;;;5.25;4.32;;;20.60;71.20;;;;;;5014534;28;20022;-39
2021/06/09 06:05:22;;;;;;;6.60;3.60;;;20.60;71.30;;;;;;5015377;28;20463;-39
2021/06/09 06:07:50;;;;;;;5.55;3.78;;;20.70;71.30;;;;;;5014563;28;20030;-39
2021/06/09 06:10:17;;;;;;;4.82;3.70;;;20.70;70.90;;;;;;5015244;28;20026;-40
2021/06/09 06:12:43;;;;;;;5.13;4.03;;;20.80;70.70;;;;;;5014433;28;20025;-39
2021/06/09 06:15:13;;;;;;;4.20;3.75;;;20.80;70.10;;;;;;5015013;28;20026;-40
2021/06/09 06:17:40;;;;;;;4.90;3.67;;;20.90;70.20;;;;;;5014090;28;20062;-40
2021/06/09 06:20:16;;;;;;;4.93;3.70;;;20.90;70.30;;;;;;5014979;28;20263;-40
2021/06/09 06:22:44;;;;;;;6.20;4.15;;;21.00;70.40;;;;;;5014370;28;20057;-39
2021/06/09 06:25:17;;;;;;;6.25;3.97;;;21.00;70.20;;;;;;5015134;28;20034;-39
2021/06/09 06:27:47;;;;;;;7.28;4.00;;;21.10;70.10;;;;;;5013989;28;20451;-39
2021/06/09 06:30:18;;;;;;;5.70;3.88;;;21.20;70.00;;;;;;5016210;28;20105;-39
2021/06/09 06:32:47;;;;;;;5.68;3.75;;;21.30;69.60;;;;;;5018172;28;20057;-39
2021/06/09 06:35:14;;;;;;;6.67;3.70;;;21.30;69.50;;;;;;5018526;28;20026;-39
2021/06/09 06:37:42;;;;;;;6.13;3.60;;;21.40;69.50;;;;;;5017889;28;20337;-39
2021/06/09 06:40:08;;;;;;;4.38;3.50;;;21.40;68.90;;;;;;5018722;28;20080;-39
2021/06/09 06:42:34;;;;;;;10.10;3.78;;;21.40;68.80;;;;;;5018074;28;20042;-39
2021/06/09 06:45:01;;;;;;;6.22;3.70;;;21.50;69.10;;;;;;5018257;28;20034;-39
2021/06/09 06:47:27;;;;;;;6.70;3.83;;;21.50;68.80;;;;;;5018233;28;20198;-39
2021/06/09 06:49:55;;;;;;;5.00;3.60;;;21.60;68.10;;;;;;5018513;28;20300;-39
2021/06/09 06:52:21;;;;;;;4.72;3.88;;;21.60;68.50;;;;;;5017681;28;20026;-40
2021/06/09 06:54:46;;;;;;;4.32;3.45;;;21.60;68.20;;;;;;5018683;28;20022;-36
2021/06/09 06:57:13;;;;;;;3.70;3.10;;;21.70;67.90;;;;;;5017811;28;20058;-40
2021/06/09 06:59:39;;;;;;;3.85;2.90;;;21.70;67.60;;;;;;5017837;28;20042;-39
2021/06/09 07:02:06;;;;;;;3.83;2.95;;;21.80;67.60;;;;;;5017855;28;20034;-40
2021/06/09 07:04:33;;;;;;;4.85;3.58;;;21.80;66.70;;;;;;5017966;28;20172;-39
2021/06/09 07:06:59;;;;;;;3.63;3.03;;;21.90;66.50;;;;;;5017704;28;20030;-38
2021/06/09 07:09:25;;;;;;;3.92;2.95;;;21.90;66.60;;;;;;5018051;28;20026;-39
2021/06/09 07:11:54;;;;;;;3.92;3.17;;;22.00;66.30;;;;;;5017167;28;20032;-36
2021/06/09 07:14:27;;;;;;;3.50;2.97;;;22.00;66.00;;;;;;5017561;28;20030;-36
2021/06/09 07:16:54;;;;;;;3.78;3.10;;;22.00;66.60;;;;;;5016763;28;20068;-39
2021/06/09 07:19:20;;;;;;;3.50;3.20;;;22.10;65.40;;;;;;5017487;28;20026;-39
2021/06/09 07:21:46;;;;;;;3.58;2.75;;;22.10;65.10;;;;;;5017253;28;20046;-36
2021/06/09 07:24:12;;;;;;;7.63;2.85;;;22.10;65.30;;;;;;5017666;28;20321;-39
2021/06/09 07:26:45;;;;;;;3.45;2.70;;;22.20;65.10;;;;;;5017093;28;20046;-36
2021/06/09 07:29:12;;;;;;;4.18;3.10;;;22.20;65.00;;;;;;5017800;28;20064;-39
2021/06/09 07:31:43;;;;;;;7.25;3.38;;;22.30;64.50;;;;;;5017118;28;20124;-39
2021/06/09 07:34:10;;;;;;;3.22;2.90;;;22.30;64.60;;;;;;5017383;28;20139;-40
2021/06/09 07:36:48;;;;;;;5.03;4.38;;;22.40;64.30;;;;;;5016655;28;20369;-36
2021/06/09 07:39:35;;;;;;;8.75;4.63;;;22.40;64.10;;;;;;5017671;28;20030;-36
2021/06/09 07:42:04;;;;;;;8.75;5.15;;;22.50;63.80;;;;;;5015241;28;20038;-36
2021/06/09 07:45:02;;;;;;;6.15;4.35;;;22.50;64.10;;;;;;5017528;28;20053;-36
2021/06/09 07:47:28;;;;;;;8.73;6.55;;;22.50;64.00;;;;;;5016922;28;20030;-36
2021/06/09 07:49:55;;;;;;;5.70;3.83;;;22.60;64.20;;;;;;5016895;28;20410;-36
2021/06/09 07:52:22;;;;;;;4.43;3.25;;;22.60;63.50;;;;;;5016514;28;20418;-36
2021/06/09 07:54:50;;;;;;;4.25;3.70;;;22.70;63.20;;;;;;5016936;28;20472;-36
2021/06/09 07:57:17;;;;;;;4.05;3.35;;;22.70;63.10;;;;;;5016476;28;20037;-35
2021/06/09 07:59:44;;;;;;;6.40;3.08;;;22.80;62.70;;;;;;5017030;28;20057;-36
2021/06/09 08:02:12;;;;;;;5.57;3.10;;;22.80;62.80;;;;;;5015882;28;20033;-36
2021/06/09 08:04:38;;;;;;;3.63;2.92;;;22.90;62.60;;;;;;5016478;28;20068;-36
2021/06/09 08:07:04;;;;;;;10.63;5.70;;;22.90;62.20;;;;;;5016365;28;20046;-36
2021/06/09 08:09:30;;;;;;;8.90;7.03;;;23.00;62.10;;;;;;5017075;28;20026;-36
2021/06/09 08:11:58;;;;;;;5.97;3.70;;;23.10;62.20;;;;;;5016134;28;20312;-36
2021/06/09 08:14:24;;;;;;;8.00;5.55;;;23.10;61.50;;;;;;5016422;28;20068;-36
2021/06/09 08:16:50;;;;;;;4.45;3.45;;;23.10;61.40;;;;;;5015544;28;20057;-36
2021/06/09 08:19:16;;;;;;;8.25;7.25;;;23.20;61.20;;;;;;5015670;28;20034;-35
2021/06/09 08:21:42;;;;;;;6.38;4.82;;;23.20;61.40;;;;;;5015326;28;20030;-36
2021/06/09 08:24:08;;;;;;;4.38;3.22;;;23.20;61.30;;;;;;5015760;28;20040;-36
2021/06/09 08:26:34;;;;;;;4.13;3.17;;;23.20;60.90;;;;;;5015242;28;20125;-36
2021/06/09 08:29:00;;;;;;;6.45;5.35;;;23.30;60.90;;;;;;5015506;28;20307;-36
2021/06/09 08:31:29;;;;;;;3.70;3.17;;;23.30;60.90;;;;;;5015575;28;20112;-35
2021/06/09 08:33:57;;;;;;;4.72;4.10;;;23.30;60.80;;;;;;5015149;28;20034;-36
2021/06/09 08:36:23;;;;;;;3.95;3.03;;;23.30;60.30;;;;;;5015120;28;20034;-36
2021/06/09 08:38:54;;;;;;;6.63;4.70;;;23.30;60.70;;;;;;5015350;28;20030;-36
2021/06/09 08:41:22;;;;;;;3.40;2.92;;;23.40;60.90;;;;;;5015197;28;20037;-36
2021/06/09 08:43:48;;;;;;;3.58;3.25;;;23.40;61.00;;;;;;5014700;28;20057;-36
2021/06/09 08:46:16;;;;;;;5.40;3.17;;;23.40;61.40;;;;;;5014771;28;20056;-36
2021/06/09 08:48:44;;;;;;;4.25;3.70;;;23.50;61.10;;;;;;5014832;28;20072;-36
2021/06/09 08:51:12;;;;;;;3.90;3.50;;;23.50;60.50;;;;;;5015490;28;20034;-36
2021/06/09 08:53:50;;;;;;;7.32;3.53;;;23.50;60.60;;;;;;5014179;28;20034;-36
2021/06/09 08:56:17;;;;;;;6.47;3.88;;;23.60;61.40;;;;;;5015167;28;20049;-36
2021/06/09 08:58:43;;;;;;;4.57;3.70;;;23.60;60.90;;;;;;5014804;28;20022;-35
2021/06/09 09:01:10;;;;;;;3.58;2.85;;;23.60;60.70;;;;;;5014971;28;20080;-36
2021/06/09 09:03:37;;;;;;;3.65;3.08;;;23.70;61.10;;;;;;5014353;28;20026;-36
2021/06/09 09:06:04;;;;;;;4.35;3.30;;;23.70;60.80;;;;;;5014812;28;20037;-36
2021/06/09 09:08:30;;;;;;;5.72;2.60;;;23.80;60.60;;;;;;5014383;28;20054;-36
2021/06/09 09:10:56;;;;;;;3.60;3.30;;;23.90;59.70;;;;;;5014974;28;20053;-36
2021/06/09 09:13:24;;;;;;;5.32;2.67;;;23.90;59.40;;;;;;5014203;28;20089;-36
2021/06/09 09:15:49;;;;;;;3.70;3.20;;;23.90;59.50;;;;;;5014695;28;20061;-36
2021/06/09 09:18:15;;;;;;;3.92;3.03;;;24.00;59.70;;;;;;5006726;28;238140;-36
2021/06/09 09:20:47;;;;;;;4.70;3.30;;;24.00;59.40;;;;;;5015355;28;20065;-36
2021/06/09 09:23:20;;;;;;;3.65;2.70;;;24.10;59.40;;;;;;5015569;28;20030;-36
2021/06/09 09:25:47;;;;;;;3.03;2.72;;;24.10;58.30;;;;;;5016073;28;20030;-36
2021/06/09 09:28:31;;;;;;;5.45;3.22;;;24.20;58.70;;;;;;5010455;28;20044;-36
2021/06/09 09:31:10;;;;;;;3.35;2.95;;;24.30;58.10;;;;;;5015759;28;20105;-36
2021/06/09 09:33:36;;;;;;;4.07;2.55;;;24.30;57.90;;;;;;5014692;28;20034;-36
2021/06/09 09:36:21;;;;;;;2.92;2.53;;;24.30;58.30;;;;;;5015037;28;20104;-36
2021/06/09 09:38:48;;;;;;;2.60;2.40;;;24.30;57.50;;;;;;5015411;28;20045;-36
2021/06/09 09:41:16;;;;;;;2.28;2.08;;;24.40;57.70;;;;;;5015509;28;20276;-36
2021/06/09 09:43:41;;;;;;;3.25;2.40;;;24.40;57.00;;;;;;5015361;28;20038;-36
2021/06/09 09:46:09;;;;;;;3.22;2.20;;;24.40;56.50;;;;;;5015461;28;20322;-36
2021/06/09 09:48:37;;;;;;;4.10;2.60;;;24.50;56.20;;;;;;5014798;28;20038;-36
2021/06/09 09:51:04;;;;;;;2.80;2.45;;;24.50;56.50;;;;;;5015211;28;20037;-36
2021/06/09 09:53:31;;;;;;;2.63;2.40;;;24.60;56.80;;;;;;5014868;28;20025;-36
2021/06/09 09:56:03;;;;;;;2.80;2.50;;;24.60;56.80;;;;;;5015335;28;20365;-36
2021/06/09 09:58:30;;;;;;;4.60;2.55;;;24.70;55.80;;;;;;5014234;28;20414;-36
2021/06/09 10:01:15;;;;;;;3.03;2.65;;;24.80;55.90;;;;;;5015266;28;20042;-36
2021/06/09 10:03:43;;;;;;;2.90;2.30;;;24.90;55.60;;;;;;5014487;28;20042;-36
2021/06/09 10:06:17;;;;;;;4.10;2.25;;;24.90;55.60;;;;;;5033438;28;20062;-36
2021/06/09 10:08:43;;;;;;;4.25;2.55;;;25.00;54.90;;;;;;5018784;28;20026;-36
2021/06/09 10:11:12;;;;;;;9.65;2.58;;;25.00;54.60;;;;;;5018898;28;20432;-36
2021/06/09 10:13:39;;;;;;;2.83;2.50;;;25.10;54.60;;;;;;5018626;28;20357;-36
2021/06/09 10:16:25;;;;;;;2.85;2.40;;;25.10;54.80;;;;;;5018881;28;20037;-36
2021/06/09 10:19:07;;;;;;;2.55;1.98;;;25.10;54.80;;;;;;5018422;28;20041;-36
2021/06/09 10:21:42;;;;;;;4.43;2.60;;;25.20;54.60;;;;;;5018813;28;20474;-37
2021/06/09 10:24:09;;;;;;;2.88;2.38;;;25.30;54.50;;;;;;5018817;28;20033;-37
2021/06/09 10:26:35;;;;;;;3.53;2.35;;;25.40;54.40;;;;;;5018156;28;20069;-36
2021/06/09 10:29:11;;;;;;;6.95;3.03;;;25.40;54.40;;;;;;5018282;28;20441;-36
2021/06/09 10:31:46;;;;;;;3.40;2.85;;;25.50;54.00;;;;;;5018036;28;20049;-36
2021/06/09 10:34:12;;;;;;;2.72;2.30;;;25.60;54.30;;;;;;5018143;28;20030;-36
2021/06/09 10:36:45;;;;;;;2.83;2.33;;;25.60;53.60;;;;;;5018261;28;20425;-36
2021/06/09 10:39:12;;;;;;;4.70;2.78;;;25.70;53.80;;;;;;5018284;28;20041;-37
2021/06/09 10:41:44;;;;;;;2.63;2.25;;;25.80;53.90;;;;;;5018422;28;20030;-36
2021/06/09 10:44:11;;;;;;;3.25;2.38;;;25.90;53.50;;;;;;5018444;28;20179;-37
2021/06/09 10:46:45;;;;;;;6.63;2.70;;;25.90;52.90;;;;;;5018031;28;20045;-36
2021/06/09 10:49:15;;;;;;;5.13;2.53;;;26.00;53.00;;;;;;5018250;28;20030;-37
2021/06/09 10:51:41;;;;;;;2.75;2.50;;;26.20;53.50;;;;;;5018212;28;20406;-36
2021/06/09 10:54:11;;;;;;;4.18;3.40;;;26.30;53.10;;;;;;5033258;28;20042;-38
2021/06/09 10:56:42;;;;;;;7.03;3.00;;;26.40;53.30;;;;;;5018016;28;20042;-36
2021/06/09 10:59:10;;;;;;;2.63;2.40;;;26.40;52.60;;;;;;5018232;28;20060;-36
2021/06/09 11:01:37;;;;;;;10.75;2.40;;;26.50;52.20;;;;;;5017826;28;20030;-37
2021/06/09 11:04:03;;;;;;;3.45;2.30;;;26.60;52.70;;;;;;5018103;28;20069;-37
2021/06/09 11:06:49;;;;;;;3.08;2.53;;;26.70;52.50;;;;;;5017633;28;20034;-36
2021/06/09 11:09:18;;;;;;;2.80;2.60;;;26.80;52.40;;;;;;5017800;28;20041;-37
2021/06/09 11:11:47;;;;;;;2.53;2.30;;;26.80;52.20;;;;;;5017848;28;20033;-36
2021/06/09 11:14:24;;;;;;;4.55;3.25;;;27.00;52.00;;;;;;5017545;28;20038;-37
2021/06/09 11:16:53;;;;;;;6.57;2.83;;;27.00;52.20;;;;;;5016965;28;20128;-37
2021/06/09 11:19:51;;;;;;;5.53;2.85;;;27.10;52.20;;;;;;5017498;28;20502;-36
2021/06/09 11:22:19;;;;;;;4.32;3.00;;;27.10;52.10;;;;;;4994480;28;20100;-36
2021/06/09 11:25:10;;;;;;;4.80;2.65;;;27.20;52.20;;;;;;5017671;28;20037;-37
2021/06/09 11:27:36;;;;;;;;;;;27.30;51.00;;;;;;5017812;28;20082;-37
2021/06/09 11:30:24;;;;;;;3.03;2.72;;;27.20;51.30;;;;;;5017834;28;19906;-36
2021/06/09 11:32:54;;;;;;;2.83;2.50;;;27.20;49.10;;;;;;5016795;28;20034;-37
2021/06/09 11:35:42;;;;;;;4.38;2.33;;;27.20;49.10;;;;;;5017519;28;20033;-36
2021/06/09 11:38:19;;;;;;;4.07;3.15;;;27.20;50.10;;;;;;5016428;28;20037;-38
2021/06/09 11:40:57;;;;;;;4.47;2.42;;;27.20;49.90;;;;;;5017659;28;20069;-37
2021/06/09 11:43:45;;;;;;;2.50;2.28;;;27.20;50.20;;;;;;5016764;28;20109;-37
2021/06/09 11:46:12;;;;;;;2.60;2.40;;;27.20;50.80;;;;;;5017218;28;20041;-36
2021/06/09 11:48:40;;;;;;;2.95;2.65;;;27.30;51.20;;;;;;5016492;28;20072;-37
2021/06/09 11:51:28;;;;;;;3.05;2.78;;;27.30;50.60;;;;;;5017137;28;20030;-37
2021/06/09 11:53:57;;;;;;;4.25;3.10;;;27.40;51.20;;;;;;5016678;28;20022;-37
2021/06/09 11:56:37;;;;;;;3.03;2.53;;;27.50;51.10;;;;;;5016771;28;20293;-37
2021/06/09 11:59:07;;;;;;;2.88;2.60;;;27.60;50.90;;;;;;5016633;28;20096;-36
2021/06/09 12:01:44;;;;;;;2.60;2.38;;;27.80;51.10;;;;;;5016480;28;20088;-37
2021/06/09 12:04:16;;;;;;;2.92;2.60;;;27.90;50.60;;;;;;5016816;28;20061;-37
2021/06/09 12:06:57;;;;;;;2.85;2.42;;;28.10;50.30;;;;;;5016689;28;20038;-37
2021/06/09 12:09:23;;;;;;;4.93;2.97;;;28.30;49.80;;;;;;5016545;28;20436;-37
2021/06/09 12:12:01;;;;;;;3.28;2.88;;;28.50;49.20;;;;;;5016450;28;20116;-37
2021/06/09 12:14:35;;;;;;;3.47;2.70;;;28.70;48.70;;;;;;5016688;28;20022;-37
2021/06/09 12:17:19;;;;;;;2.40;2.20;;;28.90;48.30;;;;;;5016269;28;20046;-37
2021/06/09 12:19:50;;;;;;;4.00;2.60;;;29.10;48.20;;;;;;5016256;28;20040;-37
2021/06/09 12:22:23;;;;;;;2.70;2.50;;;29.30;47.30;;;;;;5016561;28;20042;-37
2021/06/09 12:25:06;;;;;;;3.47;2.33;;;29.40;47.20;;;;;;5016902;28;20357;-37
2021/06/09 12:27:32;;;;;;;3.30;2.30;;;29.60;45.80;;;;;;5015384;28;20125;-38
2021/06/09 12:29:59;;;;;;;2.88;2.22;;;29.70;45.90;;;;;;5016606;28;20028;-37
2021/06/09 12:32:30;;;;;;;3.30;2.10;;;29.80;45.30;;;;;;5016113;28;20386;-37
2021/06/09 12:35:00;;;;;;;2.30;2.10;;;30.00;44.60;;;;;;5016396;28;20095;-37
2021/06/09 12:37:28;;;;;;;5.03;3.17;;;30.20;44.30;;;;;;5015774;28;20414;-37
2021/06/09 12:40:15;;;;;;;2.50;2.20;;;30.30;44.50;;;;;;5016305;28;20113;-37
2021/06/09 12:42:56;;;;;;;5.43;2.10;;;30.50;43.70;;;;;;5015583;28;20499;-37
2021/06/09 12:45:24;;;;;;;5.03;2.63;;;30.70;44.20;;;;;;5016173;28;20033;-37
2021/06/09 12:47:50;;;;;;;5.72;2.20;;;30.90;44.60;;;;;;5015141;28;20026;-37
2021/06/09 12:50:35;;;;;;;6.85;2.22;;;31.10;44.50;;;;;;5016005;28;20103;-40
2021/06/09 12:53:06;;;;;;;2.58;2.10;;;31.20;44.20;;;;;;5015715;28;20034;-37
2021/06/09 12:55:35;;;;;;;3.60;2.08;;;31.30;43.90;;;;;;5016082;28;20060;-37
2021/06/09 12:58:07;;;;;;;3.53;2.30;;;31.20;45.00;;;;;;5015177;28;20414;-38
2021/06/09 13:00:35;;;;;;;3.60;2.17;;;31.00;45.40;;;;;;5015847;28;20045;-37